Clear Sky Current Weather (METAR) For Cancun Airport

All times on the weather descriptions are local

Observed at 13:45 - (30 mins ago)

Clear Sky

25°C

Clear Sky
Clouds:
Wind: 060° at 11 knots
Visibility: 7 statute miles
QNH:
Dew Point: 13°C
Runway in Use: Likely Runway 12

Sunrise Today: 06:18
Sunset Today: 17:45

Forecast Weather (TAF) For Cancun Airport

Issued at 18:00 - (17 days ago)


Runway in Use: Unable to determine, wind is clam

Forecast valid until 18:00 on Sunday

METAR/TAF RAW METAR / TAF

MMUN 121945Z 06011KT 7SM SKC 25/13 A3017 RMK SC

Weather Widget

Put weather from any of our airports on your website with our weather widget.

Find Another Search

Airport Search


Please Wait Please Wait - Loading
Close
Close

Login

Username:

Password:

Remember Me:

Remember me on this computer

Forgotten your password? Get a reset password sent to your registered e-mail address

Close

User Private Message

Subject:

Message: